Time;durP1;ratioP1;P1;durP2;ratioP2;P2;SDS_P1;SDS_P2;PMS_P1;PMS_P2;Temp;Humidity;BMP_temperature;BMP_pressure;BME280_temperature;BME280_humidity;BME280_pressure;Samples;Min_cycle;Max_cycle;Signal;HPM_P1;HPM_P2
2021/10/24 00:12:16;;;;;;;11.65;5.60;;;;;;;4.20;100.00;101615.09;714218;1178;113926;-75
2021/10/24 00:27:18;;;;;;;13.80;5.55;;;;;;;4.16;100.00;101624.75;714001;1178;113802;-75
2021/10/24 00:42:20;;;;;;;12.78;7.80;;;;;;;4.05;100.00;101619.15;714203;1205;113675;-74
2021/10/24 00:57:23;;;;;;;20.73;9.30;;;;;;;3.89;100.00;101641.41;714275;1178;113818;-75
2021/10/24 01:12:26;;;;;;;12.48;5.30;;;;;;;3.63;100.00;101625.92;714417;1182;113782;-73
2021/10/24 01:27:30;;;;;;;10.33;5.87;;;;;;;3.52;100.00;101629.82;714619;1199;113853;-74
2021/10/24 01:42:32;;;;;;;13.93;5.67;;;;;;;3.45;100.00;101666.36;714212;1177;114834;-74
2021/10/24 01:57:34;;;;;;;18.63;7.27;;;;;;;3.28;100.00;101677.34;714537;1202;114534;-73
2021/10/24 02:12:37;;;;;;;10.65;6.20;;;;;;;3.26;100.00;101670.51;714482;1199;114920;-74
2021/10/24 02:27:40;;;;;;;12.60;5.80;;;;;;;3.19;100.00;101682.02;714490;1200;114800;-73
2021/10/24 02:42:42;;;;;;;13.73;6.73;;;;;;;3.08;100.00;101685.81;714260;1200;114646;-73
2021/10/24 02:57:44;;;;;;;14.63;6.13;;;;;;;3.06;100.00;101691.95;714172;1202;113714;-74
2021/10/24 03:12:46;;;;;;;49.95;25.30;;;;;;;2.98;100.00;101697.39;714457;1177;113815;-73
2021/10/24 03:27:48;;;;;;;17.78;9.80;;;;;;;3.00;100.00;101722.38;714698;1199;114149;-73
2021/10/24 03:42:51;;;;;;;16.43;7.95;;;;;;;2.94;100.00;101729.52;714167;1200;113890;-74
2021/10/24 03:57:53;;;;;;;16.35;6.43;;;;;;;2.86;100.00;101749.66;714404;1181;113791;-73
2021/10/24 04:12:56;;;;;;;10.88;6.03;;;;;;;2.65;100.00;101762.39;714663;1200;113967;-73
2021/10/24 04:27:58;;;;;;;22.15;7.43;;;;;;;2.56;100.00;101752.31;714580;1200;113913;-73
2021/10/24 04:43:00;;;;;;;42.03;24.70;;;;;;;2.25;100.00;101779.99;714440;1200;114057;-72
2021/10/24 04:58:03;;;;;;;24.03;11.70;;;;;;;2.05;100.00;101790.09;715274;1202;115771;-73
2021/10/24 05:13:05;;;;;;;22.05;10.13;;;;;;;1.98;100.00;101812.72;715305;1200;115561;-78
2021/10/24 05:28:07;;;;;;;26.40;13.77;;;;;;;1.94;100.00;101824.02;714757;1200;114799;-78
2021/10/24 05:43:09;;;;;;;33.87;16.33;;;;;;;1.75;100.00;101836.63;715507;1200;115136;-80
2021/10/24 05:58:11;;;;;;;33.78;16.75;;;;;;;1.68;100.00;101838.52;714667;1193;114152;-81
2021/10/24 06:13:13;;;;;;;41.60;19.05;;;;;;;1.68;100.00;101855.77;714511;1200;114818;-79
2021/10/24 06:28:16;;;;;;;57.87;23.40;;;;;;;1.96;100.00;101863.67;715006;1199;115033;-79
2021/10/24 06:43:18;;;;;;;65.78;36.28;;;;;;;2.27;100.00;101883.53;714886;1176;113946;-80
2021/10/24 06:58:20;;;;;;;37.78;18.15;;;;;;;2.43;100.00;101904.67;714989;1177;114054;-72
2021/10/24 07:13:23;;;;;;;41.63;24.90;;;;;;;2.94;100.00;101927.41;714626;1199;115074;-73
2021/10/24 07:28:28;;;;;;;77.67;50.50;;;;;;;3.23;100.00;101937.78;714607;1200;114513;-76
2021/10/24 07:43:51;;;;;;;13.58;9.33;;;;;;;3.76;100.00;101939.55;714583;1199;114662;-76
2021/10/24 07:58:53;;;;;;;43.77;20.17;;;;;;;4.24;100.00;101946.59;715057;1176;113067;-86
2021/10/24 08:13:56;;;;;;;18.50;10.27;;;;;;;4.69;100.00;101960.59;714726;1202;113966;-76
2021/10/24 08:28:58;;;;;;;39.30;19.15;;;;;;;4.93;100.00;101968.39;715192;1176;113956;-78
2021/10/24 08:44:02;;;;;;;23.23;11.38;;;;;;;5.21;100.00;101962.13;714871;1205;113937;-76
2021/10/24 08:59:05;;;;;;;20.18;10.58;;;;;;;5.74;100.00;101982.59;714970;1178;115312;-76
2021/10/24 09:14:08;;;;;;;24.88;14.83;;;;;;;6.18;100.00;102001.66;715537;1200;115167;-78
2021/10/24 09:29:14;;;;;;;18.98;10.50;;;;;;;5.99;100.00;102003.30;715099;1177;114628;-77
2021/10/24 09:44:19;;;;;;;20.67;10.73;;;;;;;6.16;100.00;102002.60;714901;1200;114138;-78
2021/10/24 09:59:22;;;;;;;24.70;12.37;;;;;;;6.79;100.00;102004.22;715728;1200;114366;-76
2021/10/24 10:14:29;;;;;;;45.80;25.00;;;;;;;8.25;100.00;102008.64;715166;1200;115164;-75
2021/10/24 10:29:58;;;;;;;35.80;19.97;;;;;;;9.25;100.00;102001.69;717268;1200;114764;-87
2021/10/24 10:45:16;;;;;;;30.98;16.63;;;;;;;10.14;100.00;101993.98;714877;1200;114896;-86
2021/10/24 11:00:37;;;;;;;36.30;19.30;;;;;;;10.60;100.00;101987.80;714545;1200;115747;-85
2021/10/24 11:15:40;;;;;;;29.80;16.48;;;;;;;11.18;100.00;102003.49;715234;1203;114067;-76
2021/10/24 11:30:44;;;;;;;31.90;18.60;;;;;;;11.71;100.00;102002.77;715225;1200;115244;-87
2021/10/24 11:46:03;;;;;;;26.00;19.03;;;;;;;11.99;100.00;101986.02;714801;1204;114204;-86
2021/10/24 12:01:26;;;;;;;24.93;14.50;;;;;;;12.75;100.00;101972.96;714952;1178;114469;-86
2021/10/24 12:16:38;;;;;;;23.27;13.77;;;;;;;13.58;99.05;101969.63;714834;1177;115968;-78
2021/10/24 12:31:40;;;;;;;24.07;14.30;;;;;;;13.99;96.06;101964.84;714603;1200;114553;-89
2021/10/24 12:46:44;;;;;;;18.63;12.35;;;;;;;13.63;90.22;101953.45;715270;1200;114648;-88
2021/10/24 13:01:49;;;;;;;23.65;16.20;;;;;;;14.86;90.79;101952.88;714760;1199;114176;-85
2021/10/24 13:16:51;;;;;;;26.05;16.55;;;;;;;16.46;79.39;101938.75;714513;1185;114478;-86
2021/10/24 13:31:53;;;;;;;27.45;15.53;;;;;;;14.12;77.68;101918.08;714495;1203;114581;-86
2021/10/24 13:46:56;;;;;;;19.43;14.10;;;;;;;18.70;73.07;101920.13;714437;1192;114070;-88
2021/10/24 14:01:59;;;;;;;23.58;13.98;;;;;;;15.61;73.42;101922.95;715372;1178;114448;-87
2021/10/24 14:17:02;;;;;;;24.10;14.30;;;;;;;16.49;76.12;101911.98;715662;1200;116064;-87
2021/10/24 14:32:10;;;;;;;23.00;14.13;;;;;;;14.11;74.46;101900.55;714788;1177;114193;-83
2021/10/24 14:47:13;;;;;;;27.87;18.10;;;;;;;12.64;79.49;101892.08;714318;1202;114624;-76
2021/10/24 15:02:15;;;;;;;52.00;26.30;;;;;;;12.09;83.12;101889.75;714514;1177;114578;-77
2021/10/24 15:17:26;;;;;;;68.03;37.35;;;;;;;10.81;85.90;101895.54;714671;1177;114015;-75
2021/10/24 15:32:28;;;;;;;177.93;73.38;;;;;;;9.66;88.92;101876.22;714450;1200;115061;-77
2021/10/24 15:47:31;;;;;;;99.20;50.03;;;;;;;8.83;91.35;101876.55;714670;1205;114429;-77
2021/10/24 16:02:34;;;;;;;203.70;72.03;;;;;;;8.13;94.30;101871.56;714270;1202;115403;-77
2021/10/24 16:17:37;;;;;;;165.15;92.50;;;;;;;7.71;96.40;101851.95;714252;1202;114543;-74
2021/10/24 16:32:40;;;;;;;248.60;91.35;;;;;;;7.33;97.96;101852.11;714416;1201;114074;-82
2021/10/24 16:47:44;;;;;;;340.88;121.18;;;;;;;7.07;100.00;101850.77;714539;1180;115647;-75
2021/10/24 17:02:46;;;;;;;89.73;40.80;;;;;;;6.99;100.00;101838.09;714285;1200;115533;-75
2021/10/24 17:17:49;;;;;;;63.13;29.67;;;;;;;6.75;100.00;101833.13;714371;1177;114312;-75
2021/10/24 17:32:52;;;;;;;76.33;35.70;;;;;;;6.55;100.00;101836.67;714340;1175;115411;-73
2021/10/24 17:47:54;;;;;;;37.10;20.25;;;;;;;6.54;100.00;101829.76;714294;1200;115999;-74
2021/10/24 18:02:57;;;;;;;41.45;22.28;;;;;;;6.40;100.00;101822.59;714337;1205;114880;-73
2021/10/24 18:18:00;;;;;;;52.30;23.98;;;;;;;6.27;100.00;101805.83;714542;1177;113895;-73
2021/10/24 18:33:03;;;;;;;47.00;23.80;;;;;;;6.41;100.00;101802.57;714450;1200;115281;-75
2021/10/24 18:48:05;;;;;;;39.73;22.30;;;;;;;6.43;100.00;101798.14;714552;1200;114567;-74
2021/10/24 19:03:07;;;;;;;46.50;24.38;;;;;;;6.42;100.00;101794.67;714967;1177;113952;-73
2021/10/24 19:18:11;;;;;;;44.67;21.27;;;;;;;6.53;100.00;101793.34;714955;1176;114173;-73
2021/10/24 19:33:14;;;;;;;43.08;21.88;;;;;;;6.48;100.00;101789.19;714694;1200;114458;-72
2021/10/24 19:48:18;;;;;;;50.23;24.53;;;;;;;6.46;100.00;101798.83;715310;1200;114689;-73
2021/10/24 20:03:21;;;;;;;47.25;21.80;;;;;;;6.37;100.00;101794.04;714915;1205;114845;-74
2021/10/24 20:18:23;;;;;;;39.30;20.70;;;;;;;6.34;100.00;101783.77;715015;1181;113982;-73
2021/10/24 20:33:28;;;;;;;40.67;18.97;;;;;;;6.21;100.00;101787.86;714326;1199;115402;-73
2021/10/24 20:48:30;;;;;;;38.78;20.08;;;;;;;6.10;100.00;101773.55;714531;1200;114359;-74
2021/10/24 21:03:33;;;;;;;36.77;17.90;;;;;;;6.10;100.00;101775.33;714580;1200;114523;-74
2021/10/24 21:18:36;;;;;;;41.25;19.13;;;;;;;6.13;100.00;101769.96;714339;1200;114506;-75
2021/10/24 21:33:38;;;;;;;43.30;20.68;;;;;;;5.95;100.00;101759.44;713811;1206;114241;-74
2021/10/24 21:48:41;;;;;;;40.33;19.95;;;;;;;5.77;100.00;101748.08;713826;1199;114665;-74
2021/10/24 22:03:43;;;;;;;49.15;21.70;;;;;;;5.73;100.00;101741.31;713825;1177;114975;-73
2021/10/24 22:18:46;;;;;;;52.20;24.05;;;;;;;5.56;100.00;101728.20;713793;1178;114875;-72
2021/10/24 22:33:48;;;;;;;38.60;19.57;;;;;;;5.24;100.00;101715.67;713915;1200;114897;-73
2021/10/24 22:48:50;;;;;;;42.87;19.47;;;;;;;4.94;100.00;101707.41;713653;1206;113912;-73
2021/10/24 23:03:54;;;;;;;40.07;19.53;;;;;;;4.69;100.00;101695.41;714326;1199;113973;-74
2021/10/24 23:18:56;;;;;;;39.68;18.18;;;;;;;4.51;100.00;101691.80;714076;1200;114070;-74
2021/10/24 23:33:59;;;;;;;44.45;20.08;;;;;;;4.38;100.00;101683.66;714774;1177;114108;-75
2021/10/24 23:49:04;;;;;;;39.18;18.63;;;;;;;4.13;100.00;101670.77;714266;1205;115377;-74
